UGSB Airport Information

Runway Information
Runway 13 Length 8202 ft width 148 ft
Elevation 86 ft Threshold ft Heading 131
Runway 31 Length 8202 ft Width 148 ft
Elevation 105 ft Threshold ft Heading 311
Airport Frequencies
Type TWR Name TWR Frequency 120 MHZ
Airport Navaids
Type NDB Name Batumi Frequency 430 KHZ
Airport Weather Information & NOTAM
ADDS - METARS form results

(0058 UTC 29 June 2022)
Data provider http://aviationweather.gov/metar/data/
 
METAR text: UGSB 290030Z 12004KT CAVOK 18/17 Q1011 NOSIG
Conditions at: UGSB (BATUMI , GE) observed 0030 UTC 29 June 2022
Temperature: 18.0°C (64°F)
Dewpoint: 17.0°C (63°F) [RH = 94%]
Pressure (altimeter): 29.85 inches Hg (1011.0 mb)
Winds: from the ESE (120 degrees) at 5 MPH (4 knots; 2.1 m/s)
Visibility: 6 or more miles (10+ km)
Ceiling: ceiling and visibility are OK
Clouds: unknown
Weather: no significant weather observed at this time

METAR text: UGSB 290000Z 12005KT 9999 SCT140 18/18 Q1011 NOSIG
Conditions at: UGSB (BATUMI , GE) observed 0000 UTC 29 June 2022
Temperature: 18.0°C (64°F)
Dewpoint: 18.0°C (64°F) [RH = 100%]
Pressure (altimeter): 29.85 inches Hg (1011.0 mb)
Winds: from the ESE (120 degrees) at 6 MPH (5 knots; 2.6 m/s)
Visibility: 6 or more miles (10+ km)
Ceiling: at least 12,000 feet AGL
Clouds: scattered clouds at 14000 feet AGL
Weather: no significant weather observed at this time

Forecast for: UGSB (BATUMI , GE)
Text: TAF UGSB 282300Z 2900/2924 12010KT 9999 SCT120 TX24/2912Z TN18/2902Z
Forecast period: 0000 to 0500 UTC 29 June 2022
Forecast type: FROM: standard forecast or significant change
Winds: from the ESE (120 degrees) at 12 MPH (10 knots; 5.1 m/s)
Visibility: 6 or more miles (10+ km)
Ceiling: at least 12,000 feet AGL
Clouds: scattered clouds at 12000 feet AGL
Weather: no significant weather forecast for this period
Text: PROB40
Forecast period: 0000 to 0400 UTC 29 June 2022
Forecast type: TEMPORARY: The following changes expected for less than half the time period
Visibility: missing
Ceiling: 2500 feet AGL
Clouds: broken clouds at 2500 feet AGL
Weather: TSRA  (rain associated with thunderstorm(s))
Text: TEMPO 2900/2904 TSRA BKN025CB
Forecast period: 0500 to 1800 UTC 29 June 2022
Forecast type: BECOMING: Conditions expected to become as follows by 0700 UTC 29 June 2022
Winds: from the W (280 degrees) at 8 MPH (7 knots; 3.6 m/s)
Visibility: 6 or more miles (10+ km)
Ceiling: at least 12,000 feet AGL
Clouds: scattered clouds at 12000 feet AGL
Weather: no significant weather forecast for this period
Text: BECMG 2905/2907 28007KT
Forecast period: 1800 UTC 29 June 2022 to 0000 UTC 30 June 2022
Forecast type: BECOMING: Conditions expected to become as follows by 2100 UTC 29 June 2022
Winds: from the ESE (120 degrees) at 12 MPH (10 knots; 5.1 m/s)
Visibility: 6 or more miles (10+ km)
Ceiling: at least 12,000 feet AGL
Clouds: scattered clouds at 12000 feet AGL
Weather: no significant weather forecast for this period